Terminal Aerodrome Forecast
Issued by NWS

Home | Current Version | Previous Version | Text Only | Print | Product List | Glossary On
Versions: 1 2 3 4 5 6 7 8 9 10 11 12 13 14 15
000
FTUS45 KFGZ 021120
TAFGCN
TAF
KGCN 021120Z 0212/0312 VRB04KT P6SM SCT100 BKN120
      TEMPO 0212/0214 VRB10KT -TSRA BKN080CB
     FM021700 24008KT P6SM SCT060 BKN110
      TEMPO 0220/0224 VRB15G25KT 4SM -TSRA OVC050CB
     FM030200 VRB05KT P6SM SCT100=

USA.gov is the U.S. government's official web portal to all federal, state and local government web resources and services.